Time;durP1;ratioP1;P1;durP2;ratioP2;P2;SDS_P1;SDS_P2;PMS_P1;PMS_P2;Temp;Humidity;BMP_temperature;BMP_pressure;BME280_temperature;BME280_humidity;BME280_pressure;Samples;Min_cycle;Max_cycle;Signal;HPM_P1;HPM_P2
2022/04/18 00:03:41;;;;;;;19.87;10.17;;;4.00;99.90;;;;;;10315080;28;20423;-79
2022/04/18 00:09:04;;;;;;;16.03;10.10;;;4.00;99.90;;;;;;10315163;28;20198;-79
2022/04/18 00:14:25;;;;;;;14.77;9.57;;;4.00;99.90;;;;;;10351488;28;20231;-78
2022/04/18 00:19:47;;;;;;;16.03;9.33;;;4.00;99.90;;;;;;10316099;28;20194;-78
2022/04/18 00:25:08;;;;;;;29.90;16.13;;;4.00;99.90;;;;;;10354277;28;20220;-79
2022/04/18 00:30:29;;;;;;;24.80;15.97;;;3.80;99.90;;;;;;10361744;28;20224;-79
2022/04/18 00:35:52;;;;;;;20.53;12.50;;;3.80;99.90;;;;;;10347671;28;20269;-78
2022/04/18 00:41:13;;;;;;;17.40;10.37;;;3.70;99.90;;;;;;10377742;28;20537;-79
2022/04/18 00:46:34;;;;;;;17.47;10.30;;;3.50;99.90;;;;;;10343351;28;20191;-78
2022/04/18 00:51:56;;;;;;;16.83;10.17;;;3.50;99.90;;;;;;10322012;28;20230;-78
2022/04/18 00:57:18;;;;;;;15.10;9.00;;;3.50;99.90;;;;;;10293629;28;20206;-78
2022/04/18 01:02:39;;;;;;;18.50;9.37;;;3.40;99.90;;;;;;10306832;28;20248;-79
2022/04/18 01:08:01;;;;;;;17.77;10.57;;;3.40;99.90;;;;;;10293793;28;20198;-78
2022/04/18 01:13:23;;;;;;;15.93;9.67;;;3.40;99.90;;;;;;10336820;28;20248;-78
2022/04/18 01:18:51;;;;;;;18.07;10.33;;;3.40;99.90;;;;;;10316879;28;20206;-78
2022/04/18 01:30:15;;;;;;;15.13;9.60;;;3.30;99.90;;;;;;10279347;28;20232;-77
2022/04/18 01:35:36;;;;;;;16.17;8.97;;;3.30;99.90;;;;;;10293002;28;20317;-78
2022/04/18 01:40:59;;;;;;;17.97;10.27;;;3.30;99.90;;;;;;10278504;28;20382;-78
2022/04/18 01:46:21;;;;;;;18.87;9.90;;;3.30;99.90;;;;;;10296206;28;20270;-78
2022/04/18 01:51:42;;;;;;;19.33;11.90;;;3.20;99.90;;;;;;10318858;28;20436;-78
2022/04/18 01:57:04;;;;;;;23.37;12.93;;;3.20;99.90;;;;;;10291093;28;20411;-78
2022/04/18 02:02:25;;;;;;;22.37;11.13;;;3.10;99.90;;;;;;10318378;28;20201;-78
2022/04/18 02:07:47;;;;;;;17.50;10.33;;;3.10;99.90;;;;;;10317935;28;20491;-77
2022/04/18 02:13:09;;;;;;;16.27;9.97;;;3.00;99.90;;;;;;10345057;28;20293;-77
2022/04/18 02:18:30;;;;;;;16.77;9.43;;;2.90;99.90;;;;;;10309035;28;20477;-78
2022/04/18 02:23:52;;;;;;;21.93;10.80;;;3.00;99.90;;;;;;10290162;28;20210;-77
2022/04/18 02:29:13;;;;;;;17.57;10.53;;;3.00;99.90;;;;;;10319714;28;20202;-78
2022/04/18 02:34:35;;;;;;;17.40;9.60;;;2.90;99.90;;;;;;10316955;28;20223;-78
2022/04/18 02:39:59;;;;;;;15.23;8.67;;;2.80;99.90;;;;;;10303430;28;20516;-77
2022/04/18 02:45:23;;;;;;;17.67;9.43;;;2.80;99.90;;;;;;10302593;28;20229;-77
2022/04/18 02:51:04;;;;;;;15.63;9.63;;;2.80;99.90;;;;;;10275385;28;20220;-78
2022/04/18 02:56:26;;;;;;;16.40;9.03;;;2.80;99.90;;;;;;10290187;28;20432;-78
2022/04/18 03:01:48;;;;;;;12.03;7.90;;;2.70;99.90;;;;;;10276388;28;20253;-78
2022/04/18 03:07:10;;;;;;;12.20;7.53;;;2.80;99.90;;;;;;10278375;28;20521;-78
2022/04/18 03:12:33;;;;;;;14.57;7.37;;;2.80;99.90;;;;;;10321178;28;20461;-78
2022/04/18 03:17:54;;;;;;;21.10;12.77;;;2.90;99.90;;;;;;10355541;28;20194;-78
2022/04/18 03:23:17;;;;;;;36.50;23.77;;;2.80;99.90;;;;;;10347099;28;20205;-78
2022/04/18 03:28:58;;;;;;;23.03;14.03;;;2.80;99.90;;;;;;10371557;28;20515;-78
2022/04/18 03:34:20;;;;;;;17.73;12.40;;;2.80;99.90;;;;;;10341066;28;20311;-78
2022/04/18 03:39:50;;;;;;;12.90;9.37;;;2.70;99.90;;;;;;10369018;28;20445;-78
2022/04/18 03:45:14;;;;;;;11.70;7.63;;;2.70;99.90;;;;;;10341777;28;20202;-78
2022/04/18 03:50:36;;;;;;;10.73;6.80;;;2.80;99.90;;;;;;10330510;28;20559;-78
2022/04/18 03:55:57;;;;;;;9.40;6.23;;;2.90;99.90;;;;;;10314319;28;20253;-78
2022/04/18 04:01:44;;;;;;;10.83;5.67;;;3.00;99.90;;;;;;10324329;28;20194;-78
2022/04/18 04:07:07;;;;;;;8.17;5.93;;;3.00;99.90;;;;;;10314824;28;20204;-79
2022/04/18 04:12:29;;;;;;;10.50;7.20;;;3.10;99.90;;;;;;10349109;28;20247;-78
2022/04/18 04:18:20;;;;;;;13.67;7.60;;;3.10;99.90;;;;;;10330161;28;20222;-78
2022/04/18 04:23:42;;;;;;;9.17;5.67;;;3.10;99.90;;;;;;10364277;28;20222;-78
2022/04/18 04:29:17;;;;;;;8.00;5.70;;;3.20;99.90;;;;;;10371931;28;20205;-78
2022/04/18 04:35:04;;;;;;;10.60;5.93;;;3.20;99.90;;;;;;10353519;28;20267;-78
2022/04/18 04:40:45;;;;;;;9.90;5.97;;;3.20;99.90;;;;;;10364900;28;20190;-78
2022/04/18 04:46:11;;;;;;;8.03;5.30;;;3.30;99.90;;;;;;10352138;28;20212;-78
2022/04/18 04:51:44;;;;;;;9.23;4.90;;;3.50;99.90;;;;;;10319674;28;20399;-79
2022/04/18 04:57:08;;;;;;;8.10;5.53;;;3.60;99.90;;;;;;10299491;28;20232;-79
2022/04/18 05:02:48;;;;;;;10.37;6.17;;;3.70;99.90;;;;;;10312651;28;20240;-78
2022/04/18 05:08:10;;;;;;;9.40;5.50;;;3.70;99.90;;;;;;10299301;28;20239;-79
2022/04/18 05:13:32;;;;;;;10.43;5.33;;;3.70;99.90;;;;;;10346520;28;20248;-78
2022/04/18 05:18:54;;;;;;;13.60;5.70;;;3.90;99.90;;;;;;10327592;28;20238;-77
2022/04/18 05:24:15;;;;;;;9.37;5.60;;;3.90;99.90;;;;;;10293655;28;20203;-79
2022/04/18 05:29:36;;;;;;;12.17;8.83;;;4.00;99.90;;;;;;10294100;28;20273;-77
2022/04/18 05:34:58;;;;;;;47.73;25.97;;;4.10;99.90;;;;;;10305641;28;20426;-78
2022/04/18 05:40:21;;;;;;;20.63;13.70;;;4.30;99.90;;;;;;10319421;28;20286;-79
2022/04/18 05:45:43;;;;;;;9.00;6.00;;;4.60;99.90;;;;;;10305169;28;20207;-78
2022/04/18 05:51:08;;;;;;;8.90;6.67;;;4.70;99.90;;;;;;10281294;28;20192;-79
2022/04/18 05:56:30;;;;;;;7.13;4.80;;;4.80;99.90;;;;;;10278832;28;20396;-79
2022/04/18 06:01:53;;;;;;;7.60;4.50;;;5.10;99.90;;;;;;10291687;28;20232;-79
2022/04/18 06:07:23;;;;;;;9.80;4.10;;;5.40;99.90;;;;;;10291869;28;20272;-79
2022/04/18 06:13:05;;;;;;;6.37;3.70;;;5.60;99.90;;;;;;10330800;28;20223;-79
2022/04/18 06:18:28;;;;;;;5.87;3.57;;;6.70;99.90;;;;;;10334751;28;20203;-79
2022/04/18 06:23:54;;;;;;;4.80;3.50;;;8.50;99.90;;;;;;10370832;28;20247;-79
2022/04/18 06:29:29;;;;;;;8.13;4.80;;;10.10;98.40;;;;;;10357541;28;20410;-78
2022/04/18 06:34:51;;;;;;;7.28;4.50;;;11.60;92.10;;;;;;10373306;28;20462;-78
2022/04/18 06:40:18;;;;;;;12.10;6.95;;;12.70;70.10;;;;;;10359620;28;20199;-78
2022/04/18 06:45:39;;;;;;;7.43;4.15;;;13.20;56.70;;;;;;10358049;28;20362;-78
2022/04/18 06:51:02;;;;;;;8.60;4.72;;;13.70;51.90;;;;;;10316601;28;20378;-77
2022/04/18 06:57:02;;;;;;;5.43;3.08;;;14.20;47.50;;;;;;10353992;28;20274;-79
2022/04/18 07:02:46;;;;;;;7.63;4.28;;;14.70;40.90;;;;;;10340004;28;20200;-78
2022/04/18 07:08:08;;;;;;;10.60;5.43;;;15.30;33.00;;;;;;10338080;28;20212;-79
2022/04/18 07:13:30;;;;;;;7.03;5.22;;;15.60;28.40;;;;;;10314266;28;20228;-79
2022/04/18 07:18:52;;;;;;;8.95;6.93;;;16.10;25.70;;;;;;10316150;28;20221;-79
2022/04/18 07:24:14;;;;;;;4.03;3.58;;;16.60;21.10;;;;;;10299066;28;20227;-79
2022/04/18 07:29:38;;;;;;;6.60;4.57;;;16.60;18.40;;;;;;10298620;28;20195;-79
2022/04/18 07:35:02;;;;;;;14.13;6.03;;;16.70;17.50;;;;;;10288461;28;20311;-79
2022/04/18 07:40:53;;;;;;;4.38;3.15;;;17.30;16.40;;;;;;10301258;28;20990;-79
2022/04/18 07:46:18;;;;;;;6.22;3.53;;;17.70;14.70;;;;;;10314843;28;20216;-78
2022/04/18 07:51:43;;;;;;;12.18;6.85;;;17.80;14.10;;;;;;10301346;28;20226;-78
2022/04/18 07:57:28;;;;;;;7.35;4.75;;;18.20;13.00;;;;;;10314334;28;20225;-78
2022/04/18 08:02:55;;;;;;;6.35;4.60;;;18.50;12.30;;;;;;10287842;28;20202;-79
2022/04/18 08:08:35;;;;;;;4.57;3.22;;;18.60;12.10;;;;;;10314046;28;20265;-79
2022/04/18 08:13:56;;;;;;;7.00;3.78;;;18.80;11.50;;;;;;10346799;28;20223;-80
2022/04/18 08:19:39;;;;;;;4.57;4.03;;;18.90;10.60;;;;;;10326091;28;20190;-79
2022/04/18 08:25:02;;;;;;;5.18;3.53;;;18.50;11.60;;;;;;10356658;28;20281;-79
2022/04/18 08:30:54;;;;;;;5.50;4.55;;;19.00;11.00;;;;;;10474028;28;20273;-79
2022/04/18 08:36:33;;;;;;;7.20;5.22;;;19.00;10.80;;;;;;10448539;28;20239;-80
2022/04/18 08:41:59;;;;;;;6.28;4.50;;;19.30;10.10;;;;;;10417518;28;20206;-79
2022/04/18 08:53:12;;;;;;;3.05;2.75;;;19.20;9.10;;;;;;10409811;28;20538;-80
2022/04/18 08:58:35;;;;;;;6.10;3.50;;;19.80;8.70;;;;;;10440301;28;20200;-79
2022/04/18 09:03:59;;;;;;;4.85;3.28;;;20.10;8.30;;;;;;10400540;28;20207;-79
2022/04/18 09:09:30;;;;;;;4.05;3.40;;;19.80;8.40;;;;;;10310462;28;20201;-79
2022/04/18 09:15:03;;;;;;;4.70;2.97;;;20.20;9.10;;;;;;10322550;28;20234;-80
2022/04/18 09:20:26;;;;;;;5.55;3.03;;;20.40;8.30;;;;;;10324209;28;20221;-80
2022/04/18 09:26:08;;;;;;;5.80;3.08;;;20.60;7.40;;;;;;10376295;28;20209;-79
2022/04/18 09:31:41;;;;;;;5.20;3.78;;;20.50;7.80;;;;;;10360337;28;20201;-80
2022/04/18 09:37:21;;;;;;;5.40;3.53;;;21.00;7.30;;;;;;10345510;28;20233;-80
2022/04/18 09:42:45;;;;;;;7.00;3.50;;;20.90;8.30;;;;;;10295579;28;20206;-79
2022/04/18 09:48:21;;;;;;;6.65;3.28;;;21.30;7.60;;;;;;10279830;28;20200;-79
2022/04/18 09:53:50;;;;;;;4.22;2.63;;;21.20;7.60;;;;;;10278735;29;20451;-79
2022/04/18 09:59:14;;;;;;;3.05;2.35;;;21.40;7.10;;;;;;10279532;28;20218;-79
2022/04/18 10:04:36;;;;;;;5.43;3.90;;;21.40;5.90;;;;;;10279186;29;20199;-79
2022/04/18 10:09:58;;;;;;;4.90;3.60;;;21.50;5.50;;;;;;10296241;28;20190;-80
2022/04/18 10:15:19;;;;;;;4.03;2.80;;;21.20;5.30;;;;;;10361090;28;20229;-80
2022/04/18 10:20:50;;;;;;;4.55;3.40;;;21.20;4.90;;;;;;10328781;28;20266;-79
2022/04/18 10:26:12;;;;;;;4.15;3.05;;;21.10;4.50;;;;;;10374090;28;20446;-79
2022/04/18 10:31:37;;;;;;;4.38;3.63;;;21.30;4.70;;;;;;10371945;28;20269;-79
2022/04/18 10:37:04;;;;;;;4.85;3.78;;;21.00;4.40;;;;;;10373253;28;20242;-80
2022/04/18 10:42:26;;;;;;;6.07;4.53;;;21.60;4.40;;;;;;10320912;28;20201;-79
2022/04/18 10:47:56;;;;;;;5.97;3.05;;;21.70;4.30;;;;;;10319547;28;20209;-79
2022/04/18 10:53:22;;;;;;;3.90;2.80;;;21.80;3.90;;;;;;10317504;28;20218;-79
2022/04/18 10:58:48;;;;;;;11.65;5.63;;;22.00;4.30;;;;;;10317149;28;20520;-79
2022/04/18 11:04:11;;;;;;;5.78;3.65;;;22.10;3.90;;;;;;10331927;28;20198;-79
2022/04/18 11:09:37;;;;;;;5.75;3.80;;;21.80;4.10;;;;;;10315645;28;20226;-78
2022/04/18 11:15:04;;;;;;;4.50;3.30;;;21.40;4.10;;;;;;10369387;28;20557;-79
2022/04/18 11:20:36;;;;;;;7.25;3.40;;;21.40;3.70;;;;;;10336351;28;20229;-79
2022/04/18 11:26:02;;;;;;;4.43;2.97;;;21.50;3.50;;;;;;10371863;28;20301;-78
2022/04/18 11:31:29;;;;;;;5.68;3.55;;;21.50;2.80;;;;;;10356337;28;20197;-80
2022/04/18 11:36:52;;;;;;;3.78;3.05;;;21.20;2.90;;;;;;10355635;28;20248;-79
2022/04/18 11:42:15;;;;;;;5.45;2.88;;;21.40;2.20;;;;;;10332632;28;20194;-78
2022/04/18 11:47:41;;;;;;;4.57;3.08;;;21.40;2.50;;;;;;10314407;28;20282;-79
2022/04/18 11:53:05;;;;;;;3.28;2.72;;;21.00;3.20;;;;;;10317013;28;20524;-79
2022/04/18 11:58:26;;;;;;;5.53;3.20;;;21.00;3.60;;;;;;10328090;28;20194;-78
2022/04/18 12:09:30;;;;;;;4.63;3.10;;;20.50;3.80;;;;;;10314655;28;20198;-79
2022/04/18 12:14:51;;;;;;;3.55;2.83;;;20.20;3.70;;;;;;10326932;28;20233;-78
2022/04/18 12:20:30;;;;;;;5.47;3.03;;;20.00;3.90;;;;;;10333264;28;20225;-78
2022/04/18 12:25:54;;;;;;;3.50;3.00;;;20.10;3.80;;;;;;10363624;28;20214;-80
2022/04/18 12:31:15;;;;;;;4.32;3.05;;;19.80;4.10;;;;;;10376123;28;20488;-79
2022/04/18 12:36:39;;;;;;;6.03;3.20;;;19.50;4.20;;;;;;10363008;28;20239;-79
2022/04/18 12:42:04;;;;;;;5.53;3.58;;;19.50;4.30;;;;;;10336956;28;20485;-79
2022/04/18 12:47:31;;;;;;;3.83;3.13;;;19.70;4.40;;;;;;10322181;28;20195;-79
2022/04/18 12:52:52;;;;;;;4.32;2.85;;;19.20;4.50;;;;;;10307333;28;20269;-79
2022/04/18 12:58:16;;;;;;;3.60;2.95;;;18.80;5.70;;;;;;10323290;28;20202;-78
2022/04/18 13:03:45;;;;;;;7.47;3.63;;;18.90;5.20;;;;;;10334643;28;20380;-78
2022/04/18 13:09:08;;;;;;;6.80;4.63;;;18.80;5.20;;;;;;10305978;28;20232;-78
2022/04/18 13:14:29;;;;;;;7.00;4.53;;;18.60;5.90;;;;;;10357418;28;20218;-78
2022/04/18 13:19:51;;;;;;;7.32;4.22;;;18.50;5.90;;;;;;10348106;28;20202;-79
2022/04/18 13:25:12;;;;;;;16.30;7.35;;;17.80;6.00;;;;;;10320692;28;20276;-79
2022/04/18 13:30:36;;;;;;;7.80;3.80;;;17.50;6.60;;;;;;10333397;28;20193;-79
2022/04/18 13:41:39;;;;;;;11.45;6.60;;;17.10;7.10;;;;;;10320082;28;20268;-79
2022/04/18 13:47:02;;;;;;;27.85;11.52;;;17.10;7.20;;;;;;10298791;28;20530;-79
2022/04/18 13:52:24;;;;;;;28.92;10.50;;;17.10;7.00;;;;;;10305578;28;20213;-78
2022/04/18 13:57:46;;;;;;;16.33;8.00;;;16.70;7.20;;;;;;10319940;28;20257;-78
2022/04/18 14:03:07;;;;;;;8.65;3.85;;;16.60;7.90;;;;;;10332327;28;20251;-79
2022/04/18 14:08:31;;;;;;;17.95;8.43;;;16.40;7.70;;;;;;10304330;28;20196;-79
2022/04/18 14:13:52;;;;;;;9.88;6.22;;;16.20;8.30;;;;;;10352676;28;20278;-79
2022/04/18 14:24:54;;;;;;;6.57;4.65;;;15.90;8.50;;;;;;10334091;28;20227;-78
2022/04/18 14:30:15;;;;;;;6.13;4.53;;;15.80;8.40;;;;;;10318132;28;20427;-78
2022/04/18 14:35:36;;;;;;;9.27;5.15;;;15.50;8.60;;;;;;10330982;28;20259;-79
2022/04/18 14:40:58;;;;;;;13.27;6.40;;;15.40;8.80;;;;;;10319476;28;20276;-80
2022/04/18 14:46:19;;;;;;;11.32;5.88;;;15.70;9.00;;;;;;10317605;28;20213;-79
2022/04/18 14:51:41;;;;;;;8.38;6.57;;;15.80;9.10;;;;;;10316673;28;20197;-79
2022/04/18 14:57:03;;;;;;;13.05;7.93;;;15.70;9.10;;;;;;10317066;28;20220;-79
2022/04/18 15:02:24;;;;;;;8.13;5.32;;;15.40;9.30;;;;;;10302431;28;20221;-79
2022/04/18 15:07:46;;;;;;;9.35;4.78;;;15.20;9.40;;;;;;10316695;28;20271;-79
2022/04/18 15:13:07;;;;;;;8.30;4.93;;;15.00;9.10;;;;;;10355603;28;20222;-79
2022/04/18 15:18:28;;;;;;;7.18;5.20;;;14.90;9.80;;;;;;10338622;28;20196;-79
2022/04/18 15:23:50;;;;;;;9.98;7.00;;;14.90;10.10;;;;;;10354499;28;20207;-79
2022/04/18 15:29:11;;;;;;;8.25;6.07;;;14.80;10.10;;;;;;10355373;28;20200;-79
2022/04/18 15:34:35;;;;;;;11.20;6.95;;;14.70;10.40;;;;;;10355041;28;20239;-79
2022/04/18 15:39:56;;;;;;;13.88;5.75;;;14.50;10.30;;;;;;10333642;28;20194;-79
2022/04/18 15:45:18;;;;;;;9.27;6.18;;;14.40;10.50;;;;;;10315941;28;20197;-79
2022/04/18 15:50:40;;;;;;;7.47;5.13;;;14.20;11.50;;;;;;10314721;28;20268;-78
2022/04/18 15:56:08;;;;;;;8.23;5.32;;;13.90;11.60;;;;;;10315290;28;20225;-78
2022/04/18 16:01:29;;;;;;;10.43;6.30;;;13.60;12.00;;;;;;10330247;28;20196;-78
2022/04/18 16:06:51;;;;;;;10.70;7.07;;;13.50;12.70;;;;;;10315229;28;20201;-79
2022/04/18 16:12:13;;;;;;;11.20;6.55;;;13.10;13.80;;;;;;10321185;28;20199;-78
2022/04/18 16:17:35;;;;;;;12.10;8.07;;;12.80;14.40;;;;;;10344704;28;20225;-80
2022/04/18 16:22:56;;;;;;;16.40;8.00;;;12.70;14.90;;;;;;10292485;28;20509;-78
2022/04/18 16:28:17;;;;;;;11.65;7.55;;;12.60;15.30;;;;;;10300167;28;20498;-78
2022/04/18 16:33:45;;;;;;;13.52;7.70;;;12.30;15.80;;;;;;10314536;28;20512;-78
2022/04/18 16:39:07;;;;;;;10.77;6.95;;;12.20;15.90;;;;;;10328816;28;20234;-78
2022/04/18 16:50:09;;;;;;;12.73;7.77;;;11.70;16.00;;;;;;10273594;29;20238;-78
2022/04/18 16:55:30;;;;;;;12.80;7.53;;;11.60;16.30;;;;;;10286525;28;20232;-78
2022/04/18 17:00:51;;;;;;;18.30;10.43;;;11.40;16.90;;;;;;10274188;29;20227;-78
2022/04/18 17:06:13;;;;;;;14.00;8.43;;;11.30;17.10;;;;;;10272803;29;20206;-78
2022/04/18 17:11:34;;;;;;;26.13;12.67;;;11.20;17.70;;;;;;10315351;28;20197;-78
2022/04/18 17:16:57;;;;;;;33.85;20.60;;;11.10;18.10;;;;;;10356334;28;20233;-78
2022/04/18 17:22:18;;;;;;;18.33;10.45;;;11.20;18.60;;;;;;10320559;28;20255;-78
2022/04/18 17:27:39;;;;;;;14.17;7.20;;;11.20;18.60;;;;;;10320003;28;20204;-78
2022/04/18 17:33:01;;;;;;;10.07;5.87;;;11.10;18.50;;;;;;10335510;28;20201;-78
2022/04/18 17:38:23;;;;;;;13.73;6.77;;;11.10;18.70;;;;;;10321157;28;20234;-78
2022/04/18 17:43:44;;;;;;;18.13;9.20;;;11.10;18.90;;;;;;10335540;28;20206;-78
2022/04/18 17:49:05;;;;;;;13.83;7.47;;;11.00;18.60;;;;;;10319265;28;20190;-78
2022/04/18 18:00:07;;;;;;;12.90;6.73;;;10.50;18.60;;;;;;10321167;28;20201;-78
2022/04/18 18:05:34;;;;;;;22.67;7.83;;;10.30;19.60;;;;;;10334626;28;20213;-78
2022/04/18 18:10:56;;;;;;;23.87;9.17;;;10.20;20.20;;;;;;10343229;28;20246;-78
2022/04/18 18:16:21;;;;;;;17.83;8.10;;;10.10;20.70;;;;;;10360920;28;20281;-78
2022/04/18 18:21:43;;;;;;;12.50;5.40;;;10.20;21.10;;;;;;10356770;28;20203;-78
2022/04/18 18:27:05;;;;;;;10.43;4.57;;;10.10;21.90;;;;;;10358014;28;20219;-79
2022/04/18 18:32:26;;;;;;;8.00;4.87;;;10.00;22.30;;;;;;10358765;28;20199;-79
2022/04/18 18:37:48;;;;;;;14.53;8.10;;;10.00;23.10;;;;;;10346501;28;20287;-79
2022/04/18 18:43:09;;;;;;;15.03;7.27;;;9.90;24.10;;;;;;10317981;28;20194;-78
2022/04/18 18:48:35;;;;;;;11.27;6.33;;;10.00;24.60;;;;;;10330276;28;20198;-78
2022/04/18 18:53:57;;;;;;;9.37;6.03;;;10.00;25.00;;;;;;10317605;28;20208;-78
2022/04/18 18:59:18;;;;;;;13.77;6.73;;;10.00;25.00;;;;;;10316611;28;20526;-78
2022/04/18 19:04:39;;;;;;;12.77;7.57;;;9.80;26.10;;;;;;10317138;28;20197;-78
2022/04/18 19:10:03;;;;;;;10.90;6.60;;;9.60;27.30;;;;;;10317652;28;20237;-79
2022/04/18 19:15:25;;;;;;;13.73;6.83;;;9.70;28.50;;;;;;10372202;28;20405;-78
2022/04/18 19:26:26;;;;;;;11.93;7.27;;;9.70;30.30;;;;;;10372202;28;20249;-79
2022/04/18 19:31:48;;;;;;;15.00;7.53;;;9.50;29.30;;;;;;10355587;28;20214;-78
2022/04/18 19:37:10;;;;;;;22.00;10.13;;;9.30;30.00;;;;;;10347885;28;20239;-78
2022/04/18 19:42:31;;;;;;;14.00;8.07;;;9.10;32.20;;;;;;10316006;28;20543;-79
2022/04/18 19:47:53;;;;;;;13.70;7.80;;;9.10;34.60;;;;;;10330710;28;20205;-78
2022/04/18 19:53:14;;;;;;;15.13;7.27;;;8.90;34.20;;;;;;10301371;28;20193;-78
2022/04/18 19:58:35;;;;;;;11.00;7.33;;;8.70;33.00;;;;;;10314539;28;20256;-78
2022/04/18 20:03:57;;;;;;;15.23;7.50;;;;;;;;;;10316728;28;20244;-79
2022/04/18 20:09:19;;;;;;;14.73;7.23;;;8.40;35.70;;;;;;10314260;28;20207;-79
2022/04/18 20:14:40;;;;;;;14.27;6.80;;;8.40;36.40;;;;;;10368992;28;20262;-78
2022/04/18 20:20:05;;;;;;;10.93;6.37;;;8.30;36.00;;;;;;10328062;28;20395;-78
2022/04/18 20:25:26;;;;;;;12.13;6.77;;;8.20;36.10;;;;;;10368019;28;20192;-79
2022/04/18 20:30:48;;;;;;;13.00;6.53;;;8.00;38.20;;;;;;10354880;28;20199;-78
2022/04/18 20:36:13;;;;;;;10.40;6.73;;;8.10;39.50;;;;;;10365384;28;20244;-78
2022/04/18 20:41:34;;;;;;;12.17;6.33;;;8.10;40.00;;;;;;10313730;28;20515;-78
2022/04/18 20:46:55;;;;;;;11.73;6.07;;;8.00;43.00;;;;;;10320399;28;20246;-78
2022/04/18 20:58:30;;;;;;;12.77;6.70;;;7.80;44.40;;;;;;10337656;28;20208;-78
2022/04/18 21:03:40;;;;;;;7.27;4.23;;;7.60;44.70;;;;;;10323071;28;20278;-78
2022/04/18 21:09:02;;;;;;;8.40;4.77;;;7.60;44.90;;;;;;10320466;28;20198;-78
2022/04/18 21:14:24;;;;;;;11.30;4.87;;;7.60;45.70;;;;;;10357898;28;20263;-79
2022/04/18 21:19:49;;;;;;;8.73;5.00;;;7.60;46.90;;;;;;10339852;28;20217;-80
2022/04/18 21:25:11;;;;;;;10.47;4.40;;;;;;;;;;10361413;28;20197;-78
2022/04/18 21:30:33;;;;;;;7.67;4.07;;;7.40;52.50;;;;;;10360045;28;20279;-78
2022/04/18 21:35:59;;;;;;;5.83;3.87;;;7.40;55.00;;;;;;10376004;28;20247;-78
2022/04/18 21:41:21;;;;;;;6.43;3.43;;;7.30;58.60;;;;;;10280788;29;20250;-78
2022/04/18 21:46:43;;;;;;;6.33;3.20;;;7.20;63.20;;;;;;10280263;29;20505;-79
2022/04/18 21:52:06;;;;;;;7.00;3.20;;;7.20;65.80;;;;;;10295048;28;20255;-78
2022/04/18 21:57:28;;;;;;;11.63;4.10;;;7.10;71.40;;;;;;10293672;28;20221;-79
2022/04/18 22:02:52;;;;;;;7.57;4.30;;;7.10;74.90;;;;;;10334898;28;20206;-78
2022/04/18 22:08:14;;;;;;;5.83;3.67;;;6.80;81.40;;;;;;10321026;28;20250;-78
2022/04/18 22:13:35;;;;;;;7.60;3.77;;;6.70;86.40;;;;;;10334295;28;20518;-78
2022/04/18 22:24:56;;;;;;;6.87;3.77;;;6.50;92.20;;;;;;10318870;28;20220;-79
2022/04/18 22:30:17;;;;;;;7.23;3.80;;;6.40;93.80;;;;;;10317529;28;20248;-79
2022/04/18 22:35:39;;;;;;;7.77;3.90;;;6.40;95.20;;;;;;10303602;28;20251;-79
2022/04/18 22:41:00;;;;;;;7.40;4.10;;;6.40;96.20;;;;;;10303369;28;20201;-78
2022/04/18 22:46:22;;;;;;;6.87;4.17;;;6.30;97.10;;;;;;10317205;28;20443;-79
2022/04/18 22:51:44;;;;;;;8.13;3.80;;;6.30;97.80;;;;;;10333154;28;20208;-78
2022/04/18 22:57:05;;;;;;;7.10;4.10;;;6.30;99.00;;;;;;10332104;28;20250;-79
2022/04/18 23:02:27;;;;;;;7.50;3.70;;;6.20;99.50;;;;;;10317569;28;20196;-78
2022/04/18 23:07:49;;;;;;;7.13;3.67;;;6.10;99.90;;;;;;10332384;28;20341;-79
2022/04/18 23:13:10;;;;;;;8.67;4.03;;;6.20;99.90;;;;;;10343215;28;20193;-79
2022/04/18 23:18:32;;;;;;;8.07;3.80;;;6.10;99.90;;;;;;10354808;28;20233;-79
2022/04/18 23:23:53;;;;;;;4.40;2.90;;;6.10;99.90;;;;;;10315210;28;20205;-78
2022/04/18 23:29:14;;;;;;;3.73;2.47;;;6.00;99.90;;;;;;10330060;28;20387;-78
2022/04/18 23:34:37;;;;;;;7.53;3.10;;;6.00;99.90;;;;;;10331030;28;20218;-79
2022/04/18 23:45:39;;;;;;;4.83;2.80;;;5.80;99.90;;;;;;10315747;28;20203;-78
2022/04/18 23:51:01;;;;;;;5.70;2.87;;;5.60;99.90;;;;;;10301051;28;20232;-78
2022/04/18 23:56:22;;;;;;;5.03;2.47;;;5.50;99.90;;;;;;10297591;28;20261;-78
